Time;durP1;ratioP1;P1;durP2;ratioP2;P2;SDS_P1;SDS_P2;PMS_P1;PMS_P2;Temp;Humidity;BMP_temperature;BMP_pressure;BME280_temperature;BME280_humidity;BME280_pressure;Samples;Min_cycle;Max_cycle;Signal;HPM_P1;HPM_P2
2022/04/24 00:00:29;;;;;;;4.72;2.97;;;13.70;71.60;;;;;;5070464;28;20231;-69
2022/04/24 00:02:59;;;;;;;3.17;2.78;;;13.60;71.80;;;;;;5072403;28;20443;-69
2022/04/24 00:05:24;;;;;;;3.30;2.83;;;13.60;72.60;;;;;;5063132;28;20173;-68
2022/04/24 00:07:50;;;;;;;3.22;2.63;;;13.50;72.20;;;;;;5072849;28;20275;-69
2022/04/24 00:10:16;;;;;;;2.95;2.65;;;13.50;72.50;;;;;;5070723;28;20212;-69
2022/04/24 00:12:41;;;;;;;2.88;2.45;;;13.40;72.40;;;;;;5099582;28;20264;-69
2022/04/24 00:15:08;;;;;;;3.05;2.42;;;13.40;72.30;;;;;;5099514;28;20268;-69
2022/04/24 00:17:37;;;;;;;3.10;2.53;;;13.30;72.50;;;;;;5066726;28;20222;-69
2022/04/24 00:20:03;;;;;;;2.90;2.28;;;13.30;73.00;;;;;;5091392;28;20185;-68
2022/04/24 00:22:28;;;;;;;2.60;2.00;;;13.30;72.80;;;;;;5104873;28;20267;-69
2022/04/24 00:24:54;;;;;;;2.30;2.08;;;13.30;72.90;;;;;;5073443;28;20188;-69
2022/04/24 00:27:19;;;;;;;2.92;2.30;;;13.20;72.70;;;;;;5071918;28;20226;-71
2022/04/24 00:29:47;;;;;;;2.25;2.00;;;13.20;72.70;;;;;;5069317;28;20234;-69
2022/04/24 00:32:13;;;;;;;2.30;1.90;;;13.20;72.90;;;;;;5075829;28;20189;-69
2022/04/24 00:34:39;;;;;;;2.78;1.98;;;13.20;72.80;;;;;;5070473;28;20186;-69
2022/04/24 00:37:05;;;;;;;4.93;2.10;;;13.20;72.80;;;;;;5070184;28;20311;-69
2022/04/24 00:39:32;;;;;;;2.10;1.90;;;13.10;72.70;;;;;;5070389;28;20205;-69
2022/04/24 00:41:58;;;;;;;2.42;1.90;;;13.10;72.70;;;;;;5073875;28;20200;-69
2022/04/24 00:44:24;;;;;;;2.45;2.22;;;13.10;72.70;;;;;;5069052;28;20210;-70
2022/04/24 00:47:02;;;;;;;3.55;2.13;;;13.10;72.70;;;;;;5073769;28;20204;-71
2022/04/24 00:49:30;;;;;;;2.92;2.45;;;13.10;73.40;;;;;;5101445;28;20196;-69
2022/04/24 00:51:57;;;;;;;2.65;2.10;;;13.10;73.10;;;;;;5088952;28;20232;-69
2022/04/24 00:54:25;;;;;;;3.08;2.50;;;13.10;73.10;;;;;;5083202;28;20192;-69
2022/04/24 00:56:50;;;;;;;2.70;2.30;;;13.10;73.30;;;;;;5087036;28;20177;-69
2022/04/24 00:59:16;;;;;;;2.80;2.50;;;13.10;73.40;;;;;;5099640;27;20184;-69
2022/04/24 01:01:42;;;;;;;4.18;2.55;;;13.00;73.50;;;;;;5086791;28;20197;-68
2022/04/24 01:04:14;;;;;;;3.28;2.75;;;13.00;73.80;;;;;;5102977;28;20259;-69
2022/04/24 01:06:41;;;;;;;2.72;2.30;;;13.00;74.50;;;;;;5073619;28;20244;-68
2022/04/24 01:09:14;;;;;;;2.78;2.40;;;13.00;74.50;;;;;;5062980;28;20212;-68
2022/04/24 01:11:42;;;;;;;4.05;2.53;;;13.00;75.00;;;;;;5065722;28;20208;-69
2022/04/24 01:14:08;;;;;;;2.97;2.25;;;12.90;74.60;;;;;;5068705;28;20288;-69
2022/04/24 01:16:37;;;;;;;2.45;2.20;;;12.90;74.80;;;;;;5089644;28;20263;-69
2022/04/24 01:19:05;;;;;;;2.73;2.30;;;12.90;75.30;;;;;;5068150;28;20173;-68
2022/04/24 01:21:33;;;;;;;2.90;2.55;;;12.80;75.50;;;;;;5072415;28;20196;-70
2022/04/24 01:24:03;;;;;;;2.72;2.35;;;12.80;75.40;;;;;;5056818;28;20175;-69
2022/04/24 01:26:29;;;;;;;2.67;2.17;;;12.70;75.30;;;;;;5070046;28;20177;-69
2022/04/24 01:28:56;;;;;;;2.72;2.33;;;12.70;75.50;;;;;;5096526;28;20208;-69
2022/04/24 01:31:22;;;;;;;2.88;2.58;;;12.60;75.60;;;;;;5074168;28;20199;-67
2022/04/24 01:33:50;;;;;;;2.80;2.50;;;12.60;76.00;;;;;;5068093;28;20177;-69
2022/04/24 01:36:15;;;;;;;3.88;2.80;;;12.60;76.10;;;;;;5061498;28;20267;-69
2022/04/24 01:38:42;;;;;;;3.60;2.60;;;12.60;76.60;;;;;;5069965;28;20212;-68
2022/04/24 01:41:08;;;;;;;4.18;2.90;;;12.50;76.70;;;;;;5106126;28;20195;-70
2022/04/24 01:43:39;;;;;;;4.47;2.35;;;12.50;77.00;;;;;;5067229;28;20188;-69
2022/04/24 01:46:08;;;;;;;4.00;2.80;;;12.50;77.40;;;;;;5075995;28;20431;-69
2022/04/24 01:48:34;;;;;;;2.50;2.28;;;12.50;77.50;;;;;;5072492;28;20209;-75
2022/04/24 01:51:04;;;;;;;3.08;2.40;;;12.50;77.60;;;;;;5066993;28;20196;-76
2022/04/24 01:53:32;;;;;;;4.10;2.63;;;12.50;78.50;;;;;;5070890;28;20195;-76
2022/04/24 01:56:07;;;;;;;2.53;2.30;;;12.60;78.80;;;;;;5062845;28;20193;-76
2022/04/24 01:58:36;;;;;;;2.43;2.23;;;12.50;78.90;;;;;;5059060;28;20460;-72
2022/04/24 02:01:04;;;;;;;2.70;2.43;;;12.60;78.50;;;;;;5078037;28;20176;-76
2022/04/24 02:03:30;;;;;;;2.57;2.20;;;12.60;78.80;;;;;;5066321;28;20200;-76
2022/04/24 02:06:01;;;;;;;2.90;2.60;;;12.50;78.50;;;;;;5070359;28;20184;-76
2022/04/24 02:08:31;;;;;;;3.17;2.47;;;12.50;79.00;;;;;;5103367;28;20193;-75
2022/04/24 02:10:58;;;;;;;2.90;2.60;;;12.50;79.10;;;;;;5059962;28;20214;-76
2022/04/24 02:13:26;;;;;;;3.28;2.55;;;12.50;78.90;;;;;;5075868;28;20181;-76
2022/04/24 02:15:56;;;;;;;2.78;2.35;;;12.50;79.40;;;;;;5069408;28;20224;-75
2022/04/24 02:18:22;;;;;;;2.55;2.30;;;12.50;79.20;;;;;;5069919;28;20169;-77
2022/04/24 02:20:47;;;;;;;2.63;2.40;;;12.50;79.20;;;;;;5070080;28;20231;-75
2022/04/24 02:23:16;;;;;;;2.80;2.30;;;12.40;79.20;;;;;;5053195;28;20262;-75
2022/04/24 02:25:41;;;;;;;2.97;2.40;;;12.40;79.30;;;;;;5072359;28;20522;-75
2022/04/24 02:28:07;;;;;;;2.47;2.28;;;12.40;79.50;;;;;;5072797;28;20205;-73
2022/04/24 02:30:38;;;;;;;2.90;2.37;;;12.40;79.70;;;;;;5095331;28;20235;-76
2022/04/24 02:33:04;;;;;;;2.77;2.27;;;12.40;80.00;;;;;;5073663;28;20183;-76
2022/04/24 02:35:32;;;;;;;2.77;2.30;;;12.40;80.00;;;;;;5071514;28;20204;-76
2022/04/24 02:38:00;;;;;;;2.50;2.30;;;12.30;80.00;;;;;;5072142;28;20172;-76
2022/04/24 02:40:27;;;;;;;2.73;2.23;;;12.30;80.30;;;;;;5074037;28;20173;-76
2022/04/24 02:42:55;;;;;;;2.40;2.03;;;12.30;80.40;;;;;;5059227;28;20293;-71
2022/04/24 02:45:21;;;;;;;2.93;2.40;;;12.30;81.10;;;;;;5069358;28;20181;-71
2022/04/24 02:47:50;;;;;;;3.07;2.20;;;12.30;81.00;;;;;;5072387;28;20318;-72
2022/04/24 02:50:18;;;;;;;2.50;2.30;;;12.20;80.90;;;;;;5096102;28;20196;-76
2022/04/24 02:52:58;;;;;;;2.33;2.07;;;12.20;81.50;;;;;;5062574;28;20177;-76
2022/04/24 02:55:27;;;;;;;2.63;2.30;;;12.20;82.40;;;;;;5091816;28;20262;-70
2022/04/24 02:57:53;;;;;;;2.47;2.10;;;12.10;81.60;;;;;;5071310;28;20276;-76
2022/04/24 03:00:22;;;;;;;2.50;2.30;;;12.10;81.40;;;;;;5071405;28;20279;-75
2022/04/24 03:02:49;;;;;;;3.23;2.20;;;12.10;81.60;;;;;;5070184;28;20249;-76
2022/04/24 03:05:24;;;;;;;2.20;2.00;;;12.10;81.60;;;;;;5071137;28;20177;-76
2022/04/24 03:07:50;;;;;;;2.30;2.10;;;12.10;82.80;;;;;;5110609;27;20387;-76
2022/04/24 03:10:16;;;;;;;2.67;2.20;;;12.10;81.90;;;;;;5080671;28;20212;-76
2022/04/24 03:12:44;;;;;;;4.30;2.20;;;12.00;81.90;;;;;;5068265;28;20177;-75
2022/04/24 03:15:12;;;;;;;2.63;2.43;;;12.00;82.00;;;;;;5068619;28;20174;-75
2022/04/24 03:17:45;;;;;;;2.40;2.20;;;12.00;82.30;;;;;;5081295;28;20168;-76
2022/04/24 03:20:12;;;;;;;2.50;2.07;;;12.00;82.70;;;;;;5071901;28;20173;-76
2022/04/24 03:22:43;;;;;;;2.40;2.20;;;12.00;82.50;;;;;;5075380;28;20192;-76
2022/04/24 03:25:10;;;;;;;3.43;2.50;;;11.90;82.50;;;;;;5078459;28;20169;-75
2022/04/24 03:27:35;;;;;;;2.67;2.27;;;11.90;82.80;;;;;;5079238;28;20323;-76
2022/04/24 03:30:02;;;;;;;2.57;2.27;;;11.90;82.70;;;;;;5077396;28;20386;-75
2022/04/24 03:32:34;;;;;;;2.53;2.33;;;11.90;82.90;;;;;;5078880;28;20253;-75
2022/04/24 03:35:04;;;;;;;2.73;2.37;;;11.90;83.60;;;;;;5072467;28;20183;-76
2022/04/24 03:37:29;;;;;;;3.07;2.53;;;11.90;83.30;;;;;;5074886;28;20179;-75
2022/04/24 03:39:59;;;;;;;2.30;2.10;;;11.80;83.30;;;;;;5088634;28;20172;-74
2022/04/24 03:42:27;;;;;;;2.53;2.33;;;11.80;83.50;;;;;;5063318;28;20169;-75
2022/04/24 03:44:59;;;;;;;2.53;2.13;;;11.80;83.60;;;;;;5073698;28;20177;-75
2022/04/24 03:47:25;;;;;;;2.60;2.40;;;11.80;84.70;;;;;;5073698;28;20176;-76
2022/04/24 03:49:50;;;;;;;2.73;2.30;;;11.70;83.80;;;;;;5073814;28;20517;-76
2022/04/24 03:52:16;;;;;;;2.27;2.07;;;11.70;84.00;;;;;;5081242;28;20211;-75
2022/04/24 03:54:43;;;;;;;2.50;2.30;;;11.70;84.20;;;;;;5083890;28;20208;-75
2022/04/24 03:57:09;;;;;;;2.80;2.30;;;11.60;84.20;;;;;;5070648;28;20193;-75
2022/04/24 03:59:35;;;;;;;2.67;2.47;;;11.60;84.40;;;;;;5071856;28;20203;-74
2022/04/24 04:02:02;;;;;;;3.00;2.47;;;11.50;84.50;;;;;;5071333;28;20201;-71
2022/04/24 04:04:28;;;;;;;3.10;2.30;;;11.50;84.70;;;;;;5108491;28;20176;-76
2022/04/24 04:06:54;;;;;;;2.30;1.97;;;11.50;84.90;;;;;;5081229;28;20173;-75
2022/04/24 04:09:20;;;;;;;2.70;2.43;;;11.50;85.00;;;;;;5073846;28;20215;-75
2022/04/24 04:11:45;;;;;;;2.27;2.07;;;11.40;85.10;;;;;;5061691;28;20204;-75
2022/04/24 04:14:13;;;;;;;2.67;2.47;;;11.40;85.40;;;;;;5079916;28;20180;-76
2022/04/24 04:16:40;;;;;;;3.00;2.43;;;11.40;85.70;;;;;;5071677;28;20197;-75
2022/04/24 04:19:08;;;;;;;3.70;2.37;;;11.40;85.80;;;;;;5054137;28;20252;-75
2022/04/24 04:21:36;;;;;;;3.20;2.77;;;11.40;86.50;;;;;;5081879;28;20180;-76
2022/04/24 04:24:04;;;;;;;2.77;2.57;;;11.30;86.30;;;;;;5071040;28;20189;-76
2022/04/24 04:26:30;;;;;;;2.73;2.50;;;11.30;87.10;;;;;;5107262;28;20183;-75
2022/04/24 04:28:58;;;;;;;3.00;2.60;;;11.20;86.90;;;;;;5064622;28;20200;-76
2022/04/24 04:31:24;;;;;;;3.20;2.90;;;11.20;87.70;;;;;;5093086;28;20189;-72
2022/04/24 04:33:54;;;;;;;2.73;2.47;;;11.20;87.50;;;;;;5087223;28;20191;-75
2022/04/24 04:36:22;;;;;;;3.17;2.50;;;11.10;88.20;;;;;;5077031;28;20195;-75
2022/04/24 04:38:47;;;;;;;2.53;2.33;;;11.10;88.00;;;;;;5079425;28;20177;-76
2022/04/24 04:41:13;;;;;;;3.00;2.50;;;11.10;88.20;;;;;;5071083;28;20225;-75
2022/04/24 04:43:41;;;;;;;3.03;2.70;;;11.10;88.50;;;;;;5069594;28;20173;-75
2022/04/24 04:46:11;;;;;;;2.90;2.57;;;11.10;88.80;;;;;;5097429;28;20173;-75
2022/04/24 04:48:37;;;;;;;3.10;2.50;;;11.00;89.50;;;;;;5075669;28;20199;-73
2022/04/24 04:51:04;;;;;;;3.10;2.80;;;11.00;89.40;;;;;;5065864;28;20189;-75
2022/04/24 04:53:34;;;;;;;3.17;2.37;;;11.00;89.60;;;;;;5095441;28;20259;-75
2022/04/24 04:56:00;;;;;;;2.67;2.40;;;11.00;90.00;;;;;;5062056;28;20204;-75
2022/04/24 04:58:30;;;;;;;3.27;2.50;;;11.00;89.80;;;;;;5107320;27;20176;-74
2022/04/24 05:01:02;;;;;;;3.77;2.77;;;11.10;90.10;;;;;;5069759;28;20177;-75
2022/04/24 05:03:30;;;;;;;2.63;2.43;;;11.10;90.10;;;;;;5057454;28;20177;-74
2022/04/24 05:05:59;;;;;;;2.63;2.43;;;11.20;90.50;;;;;;5074493;28;20222;-75
2022/04/24 05:08:33;;;;;;;2.87;2.50;;;11.20;90.40;;;;;;5073127;28;20206;-75
2022/04/24 05:11:01;;;;;;;2.93;2.63;;;11.30;90.80;;;;;;5073307;28;20197;-76
2022/04/24 05:13:27;;;;;;;2.70;2.50;;;11.30;90.90;;;;;;5072169;28;20177;-74
2022/04/24 05:15:54;;;;;;;3.10;2.80;;;11.30;90.70;;;;;;5073389;28;20219;-75
2022/04/24 05:18:20;;;;;;;4.47;2.70;;;11.40;90.90;;;;;;5063531;28;20181;-75
2022/04/24 05:20:46;;;;;;;3.20;2.70;;;11.30;91.00;;;;;;5069188;28;20189;-75
2022/04/24 05:23:12;;;;;;;3.00;2.67;;;11.40;91.10;;;;;;5067443;28;20176;-75
2022/04/24 05:25:38;;;;;;;4.40;3.07;;;11.40;91.00;;;;;;5064635;28;20180;-76
2022/04/24 05:28:06;;;;;;;4.17;2.80;;;11.40;91.00;;;;;;5073034;28;20204;-75
2022/04/24 05:30:33;;;;;;;3.20;2.70;;;11.40;91.10;;;;;;5083082;28;20215;-74
2022/04/24 05:33:01;;;;;;;3.53;2.77;;;11.40;91.00;;;;;;5073696;28;20181;-75
2022/04/24 05:35:27;;;;;;;3.13;2.77;;;11.50;91.10;;;;;;5090786;28;20196;-74
2022/04/24 05:37:54;;;;;;;3.37;2.90;;;11.50;91.00;;;;;;5067425;28;20173;-74
2022/04/24 05:40:20;;;;;;;4.17;3.30;;;11.50;91.10;;;;;;5068908;28;20188;-76
2022/04/24 05:42:55;;;;;;;3.40;3.10;;;11.50;91.10;;;;;;5072006;28;20200;-75
2022/04/24 05:45:22;;;;;;;5.73;4.30;;;11.60;91.60;;;;;;5104018;28;20265;-72
2022/04/24 05:47:49;;;;;;;4.20;3.80;;;11.60;91.20;;;;;;5068482;28;20188;-67
2022/04/24 05:50:17;;;;;;;4.00;3.60;;;11.70;91.30;;;;;;5072617;28;20187;-75
2022/04/24 05:52:45;;;;;;;3.93;3.53;;;11.70;91.60;;;;;;5069823;28;20187;-73
2022/04/24 05:55:11;;;;;;;3.50;2.90;;;11.80;91.50;;;;;;5102252;28;20196;-75
2022/04/24 05:57:40;;;;;;;3.87;3.40;;;11.90;91.50;;;;;;5066268;28;20175;-75
2022/04/24 06:00:10;;;;;;;3.80;3.17;;;11.90;91.50;;;;;;5099998;28;20204;-75
2022/04/24 06:02:39;;;;;;;4.75;3.35;;;12.00;91.40;;;;;;5062175;28;20210;-76
2022/04/24 06:05:08;;;;;;;3.23;2.90;;;12.10;91.50;;;;;;5089651;28;20186;-75
2022/04/24 06:07:36;;;;;;;3.30;3.00;;;12.10;91.40;;;;;;5072933;28;20183;-76
2022/04/24 06:10:03;;;;;;;3.70;3.20;;;12.20;91.40;;;;;;5071980;28;20238;-76
2022/04/24 06:12:31;;;;;;;3.30;2.97;;;12.20;91.30;;;;;;5077285;28;20169;-76
2022/04/24 06:15:06;;;;;;;3.03;2.72;;;12.30;91.20;;;;;;5080878;28;20223;-73
2022/04/24 06:17:32;;;;;;;3.05;2.75;;;12.40;91.30;;;;;;5073116;28;20169;-75
2022/04/24 06:19:57;;;;;;;3.00;2.70;;;12.40;91.10;;;;;;5084478;28;20170;-75
2022/04/24 06:22:23;;;;;;;3.35;3.03;;;12.50;91.10;;;;;;5068565;28;20223;-75
2022/04/24 06:24:50;;;;;;;3.22;2.92;;;12.50;91.10;;;;;;5074842;28;20267;-75
2022/04/24 06:27:18;;;;;;;4.03;3.00;;;12.60;91.10;;;;;;5101257;28;20192;-76
2022/04/24 06:29:44;;;;;;;3.15;2.75;;;12.60;91.10;;;;;;5069798;28;20185;-76
2022/04/24 06:32:12;;;;;;;5.15;3.60;;;12.70;91.10;;;;;;5073302;28;20212;-77
2022/04/24 06:34:38;;;;;;;3.40;3.00;;;12.70;91.10;;;;;;5107041;28;20193;-76
2022/04/24 06:37:07;;;;;;;3.50;3.20;;;12.80;91.20;;;;;;5063340;28;20180;-76
2022/04/24 06:39:34;;;;;;;3.15;2.85;;;12.80;91.20;;;;;;5073292;28;20238;-76
2022/04/24 06:42:02;;;;;;;4.15;3.42;;;12.90;91.30;;;;;;5070210;28;20217;-76
2022/04/24 06:44:28;;;;;;;3.70;3.30;;;13.00;91.70;;;;;;5067151;28;20188;-76
2022/04/24 06:46:56;;;;;;;3.40;3.10;;;13.00;91.30;;;;;;5065544;28;20185;-72
2022/04/24 06:49:21;;;;;;;4.25;3.33;;;13.10;91.40;;;;;;5116009;27;20173;-76
2022/04/24 06:51:47;;;;;;;3.30;3.00;;;13.10;91.30;;;;;;5072453;28;20207;-76
2022/04/24 06:54:15;;;;;;;5.63;4.35;;;13.20;91.40;;;;;;5103551;27;20412;-76
2022/04/24 06:56:40;;;;;;;4.85;3.95;;;13.30;91.40;;;;;;5059780;28;20177;-75
2022/04/24 06:59:11;;;;;;;4.25;3.70;;;13.30;91.40;;;;;;5077082;28;20233;-76
2022/04/24 07:01:37;;;;;;;6.00;3.50;;;13.40;91.50;;;;;;5092536;28;20192;-76
2022/04/24 07:04:05;;;;;;;3.30;3.00;;;13.40;91.50;;;;;;5109166;28;20317;-72
2022/04/24 07:06:30;;;;;;;3.67;3.13;;;13.50;91.50;;;;;;5066261;28;20185;-76
2022/04/24 07:08:56;;;;;;;3.53;3.20;;;13.60;91.50;;;;;;5089595;28;20212;-75
2022/04/24 07:11:22;;;;;;;4.18;3.22;;;13.70;91.50;;;;;;5100462;27;20196;-70
2022/04/24 07:13:50;;;;;;;3.38;3.08;;;13.70;91.40;;;;;;5097733;28;20169;-75
2022/04/24 07:16:17;;;;;;;3.83;3.15;;;13.70;91.40;;;;;;5072627;28;20173;-74
2022/04/24 07:18:45;;;;;;;3.60;3.22;;;13.80;91.40;;;;;;5060173;28;20175;-75
2022/04/24 07:21:11;;;;;;;4.75;3.88;;;13.90;91.50;;;;;;5098748;28;20189;-75
2022/04/24 07:23:37;;;;;;;3.40;3.10;;;13.90;91.50;;;;;;5074982;28;20222;-71
2022/04/24 07:26:05;;;;;;;3.40;3.10;;;14.00;91.50;;;;;;5071192;28;20173;-75
2022/04/24 07:28:33;;;;;;;3.97;3.25;;;14.00;91.50;;;;;;5104235;28;20196;-73
2022/04/24 07:30:59;;;;;;;3.60;3.30;;;14.10;91.50;;;;;;5071428;28;20751;-74
2022/04/24 07:33:24;;;;;;;3.53;3.20;;;14.20;91.40;;;;;;5065400;28;20184;-75
2022/04/24 07:35:50;;;;;;;3.72;3.33;;;14.30;91.50;;;;;;5068518;28;20279;-74
2022/04/24 07:38:16;;;;;;;4.25;3.50;;;14.40;91.60;;;;;;5074250;28;20251;-74
2022/04/24 07:40:41;;;;;;;3.60;3.30;;;14.50;91.60;;;;;;5064946;28;20212;-74
2022/04/24 07:43:12;;;;;;;3.30;3.00;;;14.60;91.70;;;;;;5055276;28;20169;-75
2022/04/24 07:45:37;;;;;;;3.67;3.33;;;14.70;91.70;;;;;;5093966;28;20176;-74
2022/04/24 07:48:05;;;;;;;3.67;3.38;;;14.80;91.60;;;;;;5099474;27;20215;-74
2022/04/24 07:50:34;;;;;;;4.38;3.33;;;14.90;91.40;;;;;;5067323;28;20458;-75
2022/04/24 07:53:01;;;;;;;3.80;3.40;;;15.00;91.30;;;;;;5075422;28;20173;-73
2022/04/24 07:55:27;;;;;;;3.95;3.50;;;15.10;91.30;;;;;;5103810;28;20192;-77
2022/04/24 07:57:55;;;;;;;3.58;3.28;;;15.20;91.20;;;;;;5068435;28;20195;-76
2022/04/24 08:00:25;;;;;;;3.47;3.17;;;15.30;90.90;;;;;;5104535;28;20490;-74
2022/04/24 08:02:54;;;;;;;3.22;2.92;;;15.40;90.70;;;;;;5093265;28;20181;-74
2022/04/24 08:05:26;;;;;;;3.85;3.22;;;15.50;90.60;;;;;;5071108;28;20197;-73
2022/04/24 08:07:55;;;;;;;3.15;2.85;;;15.60;90.20;;;;;;5091496;28;20192;-74
2022/04/24 08:10:23;;;;;;;3.80;3.10;;;15.60;90.20;;;;;;5070540;28;20248;-74
2022/04/24 08:12:51;;;;;;;3.50;3.20;;;15.70;89.70;;;;;;5070705;28;20177;-75
2022/04/24 08:15:17;;;;;;;3.85;3.53;;;15.70;89.00;;;;;;5054196;28;20193;-73
2022/04/24 08:17:46;;;;;;;3.88;3.47;;;15.80;88.90;;;;;;5059727;28;20197;-73
2022/04/24 08:20:15;;;;;;;4.13;3.72;;;15.80;88.40;;;;;;5074066;28;20205;-71
2022/04/24 08:22:51;;;;;;;3.30;3.00;;;15.80;87.90;;;;;;5054400;28;20173;-74
2022/04/24 08:25:22;;;;;;;4.13;3.63;;;15.90;88.00;;;;;;5054072;28;20173;-75
2022/04/24 08:27:53;;;;;;;3.35;3.05;;;15.90;88.00;;;;;;5071110;28;20333;-75
2022/04/24 08:30:23;;;;;;;4.53;3.03;;;15.90;87.60;;;;;;5066709;28;20181;-74
2022/04/24 08:32:50;;;;;;;3.45;3.15;;;15.90;87.60;;;;;;5088790;28;20196;-74
2022/04/24 08:35:21;;;;;;;3.30;2.80;;;16.00;87.80;;;;;;5073628;28;20175;-74
2022/04/24 08:37:50;;;;;;;3.47;3.17;;;16.00;87.30;;;;;;5073852;28;20186;-74
2022/04/24 08:40:20;;;;;;;3.45;3.15;;;16.10;87.10;;;;;;5093918;28;20188;-75
2022/04/24 08:42:47;;;;;;;3.20;2.90;;;16.20;86.70;;;;;;5078494;28;20165;-75
2022/04/24 08:45:17;;;;;;;3.13;2.85;;;16.30;87.20;;;;;;5053634;28;20200;-75
2022/04/24 08:47:44;;;;;;;5.07;3.50;;;16.30;86.90;;;;;;5069571;28;20176;-74
2022/04/24 08:50:12;;;;;;;5.90;2.97;;;16.50;87.00;;;;;;5088261;28;20182;-75
2022/04/24 08:52:43;;;;;;;4.25;3.85;;;16.60;86.90;;;;;;5073118;28;20230;-74
2022/04/24 08:55:09;;;;;;;3.50;3.08;;;16.70;86.20;;;;;;5073071;28;20188;-74
2022/04/24 08:57:35;;;;;;;3.50;3.10;;;16.80;86.80;;;;;;5071697;28;20197;-73
2022/04/24 09:00:03;;;;;;;3.15;2.85;;;16.90;86.60;;;;;;5055623;28;20229;-74
2022/04/24 09:02:31;;;;;;;3.95;3.50;;;17.00;86.40;;;;;;5071796;28;20192;-73
2022/04/24 09:04:59;;;;;;;3.40;3.10;;;17.10;85.80;;;;;;5072668;28;20199;-73
2022/04/24 09:07:36;;;;;;;3.33;3.03;;;17.20;85.60;;;;;;5069844;28;20181;-75
2022/04/24 09:10:11;;;;;;;3.75;3.05;;;17.30;84.90;;;;;;5070855;28;20204;-75
2022/04/24 09:12:40;;;;;;;3.55;2.97;;;17.40;85.40;;;;;;5072169;28;20175;-75
2022/04/24 09:15:07;;;;;;;3.65;2.97;;;17.50;85.70;;;;;;5084451;28;20356;-75
2022/04/24 09:17:35;;;;;;;4.75;3.03;;;17.70;85.60;;;;;;5088038;28;20172;-75
2022/04/24 09:20:17;;;;;;;4.13;3.10;;;17.80;85.00;;;;;;5069491;28;20242;-75
2022/04/24 09:22:46;;;;;;;3.70;3.40;;;17.90;84.60;;;;;;5067944;28;20173;-74
2022/04/24 09:25:12;;;;;;;3.67;3.35;;;18.10;82.80;;;;;;5070042;28;20429;-73
2022/04/24 09:27:39;;;;;;;4.20;3.75;;;18.30;83.50;;;;;;5053562;28;20199;-75
2022/04/24 09:30:17;;;;;;;4.30;3.90;;;18.30;83.20;;;;;;5052974;28;20181;-75
2022/04/24 09:32:55;;;;;;;5.07;4.57;;;18.40;80.30;;;;;;5059338;28;20180;-74
2022/04/24 09:35:33;;;;;;;4.55;4.10;;;18.40;81.10;;;;;;5087007;28;20173;-77
2022/04/24 09:38:09;;;;;;;4.43;4.03;;;18.40;80.70;;;;;;5072635;28;20259;-76
2022/04/24 09:40:42;;;;;;;4.10;3.70;;;18.40;80.50;;;;;;5072056;28;20172;-74
2022/04/24 09:43:11;;;;;;;5.68;4.40;;;18.30;80.80;;;;;;5052976;28;20262;-74
2022/04/24 09:45:48;;;;;;;3.53;3.22;;;18.30;80.30;;;;;;5069314;28;20196;-76
2022/04/24 09:48:16;;;;;;;3.70;3.35;;;18.20;80.40;;;;;;5107110;28;20284;-76
2022/04/24 09:50:46;;;;;;;3.90;3.50;;;18.30;80.80;;;;;;5067291;28;20202;-78
2022/04/24 09:53:19;;;;;;;4.18;3.78;;;18.30;80.30;;;;;;5082722;28;20201;-77
2022/04/24 09:55:46;;;;;;;4.05;3.20;;;18.40;79.70;;;;;;5069730;28;20252;-77
2022/04/24 09:58:13;;;;;;;3.92;3.50;;;18.50;80.50;;;;;;5083533;28;20250;-69
2022/04/24 10:00:41;;;;;;;4.07;3.10;;;18.60;80.00;;;;;;5071924;28;20185;-69
2022/04/24 10:03:13;;;;;;;4.18;3.78;;;18.80;81.00;;;;;;5069836;28;20205;-67
2022/04/24 10:05:42;;;;;;;3.88;3.47;;;19.00;80.20;;;;;;5097230;28;20205;-68
2022/04/24 10:08:11;;;;;;;3.45;3.15;;;19.30;79.10;;;;;;5069303;28;20177;-68
2022/04/24 10:10:37;;;;;;;4.85;3.65;;;19.50;79.40;;;;;;5089696;28;20320;-67
2022/04/24 10:13:07;;;;;;;3.75;3.20;;;19.60;77.30;;;;;;5077752;28;20211;-67
2022/04/24 10:15:33;;;;;;;5.13;3.58;;;19.70;76.80;;;;;;5076080;28;20259;-68
2022/04/24 10:18:41;;;;;;;3.65;3.35;;;19.80;77.20;;;;;;5068225;28;20218;-69
2022/04/24 10:21:16;;;;;;;3.13;2.78;;;20.10;76.30;;;;;;5078335;28;20181;-69
2022/04/24 10:23:41;;;;;;;4.78;3.05;;;20.60;78.90;;;;;;5067392;28;20192;-68
2022/04/24 10:26:23;;;;;;;4.88;4.35;;;21.00;77.80;;;;;;5075034;28;20192;-69
2022/04/24 10:29:00;;;;;;;3.47;3.17;;;21.30;74.70;;;;;;5075405;28;20180;-68
2022/04/24 10:31:27;;;;;;;3.22;2.92;;;21.50;76.70;;;;;;5077387;28;20190;-68
2022/04/24 10:33:55;;;;;;;3.45;3.15;;;21.60;74.20;;;;;;5086392;28;20171;-69
2022/04/24 10:36:21;;;;;;;3.40;3.10;;;21.50;72.90;;;;;;5088767;28;20271;-69
2022/04/24 10:39:01;;;;;;;3.50;3.20;;;21.50;72.50;;;;;;5075725;28;20271;-69
2022/04/24 10:41:31;;;;;;;2.72;2.53;;;21.40;70.50;;;;;;5073830;28;20253;-68
2022/04/24 10:44:17;;;;;;;3.90;2.95;;;21.30;70.60;;;;;;5074952;28;20181;-68
2022/04/24 10:46:46;;;;;;;2.88;2.60;;;21.20;68.00;;;;;;5071712;28;20291;-68
2022/04/24 10:49:19;;;;;;;3.13;2.83;;;21.10;70.60;;;;;;5074011;28;20176;-69
2022/04/24 10:51:57;;;;;;;3.20;2.85;;;21.10;70.10;;;;;;5072856;28;20192;-69
2022/04/24 10:54:34;;;;;;;3.10;2.78;;;21.10;69.70;;;;;;5056034;28;20162;-68
2022/04/24 10:57:18;;;;;;;3.20;2.90;;;21.00;68.30;;;;;;5067113;28;20176;-69
2022/04/24 10:59:48;;;;;;;2.92;2.70;;;20.90;66.50;;;;;;5077339;28;20199;-70
2022/04/24 11:02:20;;;;;;;3.47;2.80;;;20.90;68.80;;;;;;5079522;28;20178;-70
2022/04/24 11:04:45;;;;;;;3.30;3.00;;;20.80;67.50;;;;;;5058124;28;20174;-68
2022/04/24 11:07:21;;;;;;;2.97;2.72;;;20.80;67.10;;;;;;5117036;27;20218;-70
2022/04/24 11:09:47;;;;;;;4.57;3.15;;;20.70;66.20;;;;;;5062356;28;20193;-69
2022/04/24 11:12:13;;;;;;;3.30;2.83;;;20.60;65.90;;;;;;5059186;28;20193;-70
2022/04/24 11:14:39;;;;;;;3.20;2.90;;;20.50;65.70;;;;;;5067886;28;20189;-69
2022/04/24 11:17:06;;;;;;;3.50;2.95;;;20.40;65.20;;;;;;5082362;28;20208;-68
2022/04/24 11:19:42;;;;;;;3.10;2.80;;;20.40;65.40;;;;;;5065071;28;20180;-66
2022/04/24 11:22:11;;;;;;;3.13;2.83;;;20.30;63.70;;;;;;5083493;28;20187;-69
2022/04/24 11:24:41;;;;;;;3.22;2.70;;;20.30;63.80;;;;;;5055415;28;20181;-69
2022/04/24 11:27:16;;;;;;;2.47;2.25;;;20.40;63.60;;;;;;5090590;28;20205;-69
2022/04/24 11:29:47;;;;;;;2.95;2.65;;;20.50;64.00;;;;;;5056783;28;20193;-69
2022/04/24 11:32:17;;;;;;;3.63;2.92;;;20.70;63.80;;;;;;5072114;28;20215;-69
2022/04/24 11:34:43;;;;;;;2.83;2.40;;;20.90;63.70;;;;;;5073268;28;20196;-70
2022/04/24 11:37:09;;;;;;;2.80;2.60;;;21.10;64.50;;;;;;5069897;28;20264;-70
2022/04/24 11:39:39;;;;;;;2.97;2.60;;;21.40;65.10;;;;;;5074057;28;20239;-70
2022/04/24 11:42:04;;;;;;;2.75;2.55;;;21.60;65.10;;;;;;5094197;28;20182;-71
2022/04/24 11:50:16;;;;;;;2.67;2.45;;;22.50;65.30;;;;;;5075228;28;20216;-67
2022/04/24 11:52:51;;;;;;;3.53;2.50;;;22.80;64.00;;;;;;5077383;28;20164;-70
2022/04/24 11:55:22;;;;;;;2.90;2.67;;;23.00;62.40;;;;;;5055062;28;20161;-69
2022/04/24 11:58:02;;;;;;;2.85;2.63;;;23.10;61.80;;;;;;5059694;28;20268;-70
2022/04/24 12:00:36;;;;;;;2.72;2.53;;;23.30;61.00;;;;;;5081917;28;20188;-70
2022/04/24 12:03:07;;;;;;;2.70;2.50;;;23.40;61.80;;;;;;5074339;28;20196;-69
2022/04/24 12:05:35;;;;;;;3.80;3.45;;;23.60;62.20;;;;;;5093283;28;20189;-69
2022/04/24 12:08:02;;;;;;;3.33;3.03;;;23.80;63.20;;;;;;5071192;28;20193;-69
2022/04/24 12:10:28;;;;;;;2.97;2.78;;;24.00;62.50;;;;;;5064583;28;20180;-70
2022/04/24 12:12:54;;;;;;;3.13;2.83;;;24.20;61.10;;;;;;5081239;28;20249;-71
2022/04/24 12:15:25;;;;;;;2.83;2.60;;;24.40;60.60;;;;;;5074754;28;20288;-69
2022/04/24 12:17:57;;;;;;;2.95;2.75;;;24.50;58.90;;;;;;5081288;28;20213;-69
2022/04/24 12:20:41;;;;;;;3.20;2.25;;;24.50;57.70;;;;;;5056797;28;20201;-68
2022/04/24 12:23:17;;;;;;;3.25;2.40;;;24.30;56.60;;;;;;5073707;28;20232;-68
2022/04/24 12:25:50;;;;;;;2.83;2.47;;;24.20;55.70;;;;;;5108767;27;20238;-68
2022/04/24 12:28:32;;;;;;;2.67;2.47;;;24.00;56.20;;;;;;5079538;28;20192;-68
2022/04/24 12:31:01;;;;;;;2.53;2.22;;;23.80;54.60;;;;;;5069715;28;20273;-69
2022/04/24 12:33:27;;;;;;;2.40;2.15;;;23.60;55.10;;;;;;5071169;28;20181;-69
2022/04/24 12:35:55;;;;;;;2.05;1.85;;;23.40;54.10;;;;;;5084494;28;20187;-68
2022/04/24 12:38:22;;;;;;;2.33;2.13;;;23.20;53.90;;;;;;5069772;28;20193;-69
2022/04/24 12:41:00;;;;;;;2.63;2.42;;;23.00;54.00;;;;;;5067808;28;20216;-66
2022/04/24 12:43:27;;;;;;;5.45;2.88;;;22.90;53.40;;;;;;5073202;28;20190;-68
2022/04/24 12:45:56;;;;;;;3.38;2.50;;;22.70;53.80;;;;;;5066299;28;20192;-68
2022/04/24 12:48:25;;;;;;;2.95;2.65;;;22.60;54.10;;;;;;5070460;28;20169;-68
2022/04/24 12:50:54;;;;;;;3.17;2.70;;;22.40;54.10;;;;;;5072485;28;20177;-68
2022/04/24 12:53:22;;;;;;;3.08;2.78;;;22.30;54.00;;;;;;5084545;28;20253;-68
2022/04/24 12:55:50;;;;;;;2.67;2.47;;;22.10;54.30;;;;;;5074226;28;20314;-68
2022/04/24 12:58:19;;;;;;;2.50;2.30;;;22.10;55.00;;;;;;5069368;28;20238;-68
2022/04/24 13:00:47;;;;;;;2.97;2.60;;;22.20;55.50;;;;;;5084701;28;20189;-67